createdAt,value
2022-10-17T00:01:29.865Z,3.97
2022-10-17T00:03:56.468Z,3.67
2022-10-17T00:06:24.647Z,3.30
2022-10-17T00:08:52.040Z,4.45
2022-10-17T00:11:22.065Z,4.15
2022-10-17T00:13:50.492Z,5.25
2022-10-17T00:16:26.038Z,4.53
2022-10-17T00:18:52.795Z,6.97
2022-10-17T00:21:20.325Z,3.78
2022-10-17T00:23:47.786Z,4.57
2022-10-17T00:26:15.786Z,3.50
2022-10-17T00:28:42.803Z,6.63
2022-10-17T00:31:10.385Z,3.88
2022-10-17T00:33:37.046Z,4.78
2022-10-17T00:36:16.901Z,4.07
2022-10-17T00:38:46.029Z,4.97
2022-10-17T00:41:16.833Z,6.00
2022-10-17T00:44:02.313Z,3.95
2022-10-17T00:46:31.886Z,3.40
2022-10-17T00:49:02.500Z,4.15
2022-10-17T00:51:42.388Z,8.55
2022-10-17T00:54:10.925Z,4.78
2022-10-17T00:56:38.431Z,4.05
2022-10-17T01:01:39.920Z,3.40
2022-10-17T01:04:07.029Z,4.25
2022-10-17T01:06:33.579Z,4.32
2022-10-17T01:09:00.258Z,3.63
2022-10-17T01:12:01.381Z,4.60
2022-10-17T01:14:49.282Z,3.75
2022-10-17T01:17:29.939Z,3.50
2022-10-17T01:20:26.277Z,3.33
2022-10-17T01:23:03.695Z,4.35
2022-10-17T01:25:55.195Z,4.40
2022-10-17T01:28:34.023Z,4.22
2022-10-17T01:31:03.765Z,4.43
2022-10-17T01:33:59.145Z,5.50
2022-10-17T01:36:51.379Z,4.28
2022-10-17T01:39:30.116Z,3.75
2022-10-17T01:42:13.545Z,4.25
2022-10-17T01:44:50.465Z,4.13
2022-10-17T01:47:25.607Z,4.72
2022-10-17T01:49:56.781Z,3.85
2022-10-17T01:52:43.151Z,6.50
2022-10-17T01:55:14.905Z,6.18
2022-10-17T01:57:59.427Z,5.18
2022-10-17T02:00:29.181Z,6.20
2022-10-17T02:03:00.244Z,5.13
2022-10-17T02:05:32.063Z,6.15
2022-10-17T02:07:58.650Z,6.47
2022-10-17T02:10:39.088Z,4.72
2022-10-17T02:13:40.795Z,4.88
2022-10-17T02:16:34.073Z,4.93
2022-10-17T02:19:24.261Z,4.97
2022-10-17T02:22:03.014Z,4.78
2022-10-17T02:24:38.649Z,5.88
2022-10-17T02:27:23.997Z,5.35
2022-10-17T02:29:58.958Z,9.50
2022-10-17T02:32:32.415Z,8.23
2022-10-17T02:35:02.576Z,7.72
2022-10-17T02:37:31.582Z,9.18
2022-10-17T02:40:00.621Z,6.93
2022-10-17T02:42:29.071Z,9.88
2022-10-17T02:45:01.124Z,11.95
2022-10-17T02:47:40.606Z,9.98
2022-10-17T02:50:07.691Z,12.48
2022-10-17T02:52:51.186Z,12.40
2022-10-17T02:55:38.500Z,12.50
2022-10-17T02:58:22.425Z,15.50
2022-10-17T03:00:49.302Z,13.07
2022-10-17T03:03:28.251Z,17.27
2022-10-17T03:05:59.412Z,17.30
2022-10-17T03:08:26.158Z,23.58
2022-10-17T03:10:52.747Z,18.80
2022-10-17T03:13:20.637Z,26.73
2022-10-17T03:15:47.479Z,23.10
2022-10-17T03:18:14.337Z,21.58
2022-10-17T03:20:40.986Z,20.63
2022-10-17T03:23:08.652Z,29.45
2022-10-17T03:25:36.241Z,23.90
2022-10-17T03:28:02.926Z,23.70
2022-10-17T03:30:29.515Z,28.65
2022-10-17T03:32:57.893Z,24.77
2022-10-17T03:35:24.908Z,25.02
2022-10-17T03:37:52.279Z,24.20
2022-10-17T03:40:20.951Z,21.23
2022-10-17T03:42:48.395Z,25.77
2022-10-17T03:45:14.981Z,23.15
2022-10-17T03:47:42.030Z,23.10
2022-10-17T03:50:09.195Z,27.77
2022-10-17T03:52:37.782Z,21.05
2022-10-17T03:55:04.841Z,19.30
2022-10-17T03:57:31.804Z,20.08
2022-10-17T03:59:58.913Z,21.50
2022-10-17T04:02:25.548Z,20.02
2022-10-17T04:04:52.175Z,19.02
2022-10-17T04:07:18.857Z,24.13
2022-10-17T04:09:47.822Z,19.00
2022-10-17T04:12:19.025Z,20.10
2022-10-17T04:14:45.753Z,20.05
2022-10-17T04:17:12.333Z,19.08
2022-10-17T04:19:38.967Z,17.25
2022-10-17T04:22:08.446Z,22.95
2022-10-17T04:24:37.241Z,21.88
2022-10-17T04:27:06.506Z,17.90
2022-10-17T04:29:36.981Z,21.13
2022-10-17T04:32:15.258Z,17.98
2022-10-17T04:34:57.034Z,17.88
2022-10-17T04:37:24.056Z,23.48
2022-10-17T04:39:53.293Z,20.65
2022-10-17T04:42:20.128Z,20.40
2022-10-17T04:44:47.247Z,22.23
2022-10-17T04:47:16.510Z,20.50
2022-10-17T04:49:43.715Z,19.42
2022-10-17T04:52:10.977Z,26.35
2022-10-17T04:54:40.578Z,24.48
2022-10-17T04:57:09.714Z,25.83
2022-10-17T04:59:36.534Z,24.35
2022-10-17T05:02:23.373Z,29.25
2022-10-17T05:04:50.687Z,31.20
2022-10-17T05:07:17.479Z,30.58
2022-10-17T05:09:55.001Z,30.42
2022-10-17T05:12:22.882Z,30.17
2022-10-17T05:14:49.465Z,32.95
2022-10-17T05:17:16.033Z,28.52
2022-10-17T05:19:42.705Z,27.17
2022-10-17T05:22:09.612Z,24.27
2022-10-17T05:24:36.182Z,26.92
2022-10-17T05:27:03.508Z,32.63
2022-10-17T05:29:30.111Z,28.52
2022-10-17T05:32:06.047Z,26.63
2022-10-17T05:34:34.519Z,28.35
2022-10-17T05:37:01.494Z,29.15
2022-10-17T05:39:28.231Z,30.25
2022-10-17T05:41:56.460Z,31.20
2022-10-17T05:44:23.168Z,28.80
2022-10-17T05:46:54.207Z,28.27
2022-10-17T05:49:32.971Z,30.08
2022-10-17T05:52:07.949Z,34.08
2022-10-17T05:54:45.011Z,28.98
2022-10-17T05:57:12.030Z,29.02
2022-10-17T05:59:40.412Z,30.90
2022-10-17T06:04:45.480Z,30.02
2022-10-17T06:07:13.169Z,29.63
2022-10-17T06:09:40.367Z,31.00
2022-10-17T06:12:08.417Z,30.52
2022-10-17T06:14:35.472Z,30.55
2022-10-17T06:17:03.463Z,29.42
2022-10-17T06:19:30.103Z,28.40
2022-10-17T06:21:56.734Z,29.50
2022-10-17T06:24:25.463Z,25.38
2022-10-17T06:26:53.311Z,28.27
2022-10-17T06:29:21.529Z,30.95
2022-10-17T06:31:50.942Z,26.53
2022-10-17T06:34:18.609Z,26.95
2022-10-17T06:36:45.871Z,27.80
2022-10-17T06:39:12.936Z,28.08
2022-10-17T06:41:56.463Z,26.50
2022-10-17T06:47:30.063Z,24.65
2022-10-17T06:49:59.311Z,24.02
2022-10-17T06:52:41.971Z,25.77
2022-10-17T06:55:27.447Z,27.17
2022-10-17T06:58:09.851Z,24.77
2022-10-17T07:03:37.001Z,23.60
2022-10-17T07:06:04.603Z,22.38
2022-10-17T07:08:31.546Z,25.33
2022-10-17T07:11:09.726Z,24.75
2022-10-17T07:13:39.198Z,22.80
2022-10-17T07:16:07.000Z,22.30
2022-10-17T07:18:34.068Z,22.85
2022-10-17T07:21:01.010Z,23.92
2022-10-17T07:23:28.075Z,22.88
2022-10-17T07:26:00.509Z,25.75
2022-10-17T07:28:28.685Z,19.38
2022-10-17T07:33:30.611Z,19.27
2022-10-17T07:35:59.554Z,18.77
2022-10-17T07:38:26.933Z,19.63
2022-10-17T07:40:57.661Z,18.50
2022-10-17T07:43:25.778Z,20.08
2022-10-17T07:45:54.238Z,17.90
2022-10-17T07:48:22.175Z,18.25
2022-10-17T07:50:49.502Z,17.50
2022-10-17T07:53:16.647Z,21.30
2022-10-17T07:55:44.924Z,16.48
2022-10-17T07:58:11.451Z,21.20
2022-10-17T08:00:38.612Z,16.70
2022-10-17T08:03:06.270Z,15.90
2022-10-17T08:05:33.812Z,17.08
2022-10-17T08:08:00.664Z,15.80
2022-10-17T08:10:29.324Z,17.77
2022-10-17T08:12:57.083Z,14.52
2022-10-17T08:15:27.969Z,22.60
2022-10-17T08:17:58.591Z,13.95
2022-10-17T08:20:25.216Z,15.10
2022-10-17T08:22:55.565Z,15.63
2022-10-17T08:25:22.870Z,15.57
2022-10-17T08:27:49.906Z,14.63
2022-10-17T08:30:17.623Z,13.65
2022-10-17T08:32:44.202Z,19.80
2022-10-17T08:35:10.837Z,14.18
2022-10-17T08:37:37.467Z,12.32
2022-10-17T08:40:04.599Z,11.60
2022-10-17T08:42:41.645Z,13.55
2022-10-17T08:45:37.665Z,12.82
2022-10-17T08:48:09.922Z,12.98
2022-10-17T08:50:55.209Z,13.73
2022-10-17T08:53:35.253Z,15.77
2022-10-17T08:56:19.803Z,14.20
2022-10-17T08:58:52.063Z,13.68
2022-10-17T09:01:33.995Z,14.02
2022-10-17T09:04:22.950Z,14.85
2022-10-17T09:07:01.887Z,14.60
2022-10-17T09:09:52.355Z,14.20
2022-10-17T09:12:47.427Z,12.90
2022-10-17T09:15:34.617Z,12.15
2022-10-17T09:18:05.349Z,12.05
2022-10-17T09:20:40.617Z,11.32
2022-10-17T09:23:15.311Z,11.15
2022-10-17T09:25:45.870Z,10.85
2022-10-17T09:28:33.177Z,12.40
2022-10-17T09:31:04.103Z,13.55
2022-10-17T09:33:53.416Z,12.70
2022-10-17T09:38:50.746Z,10.82
2022-10-17T09:44:18.331Z,12.20
2022-10-17T09:47:02.910Z,11.43
2022-10-17T09:49:33.781Z,11.77
2022-10-17T09:52:06.263Z,12.25
2022-10-17T09:54:42.006Z,13.55
2022-10-17T09:57:10.939Z,13.75
2022-10-17T09:59:44.146Z,13.65
2022-10-17T10:02:13.749Z,11.38
2022-10-17T10:05:06.741Z,13.57
2022-10-17T10:07:37.050Z,14.07
2022-10-17T10:10:06.843Z,12.38
2022-10-17T10:12:37.067Z,13.45
2022-10-17T10:15:34.027Z,13.52
2022-10-17T10:18:01.034Z,11.77
2022-10-17T10:20:36.632Z,12.32
2022-10-17T10:23:14.250Z,12.02
2022-10-17T10:25:57.432Z,11.88
2022-10-17T10:28:31.220Z,10.75
2022-10-17T10:31:02.346Z,9.82
2022-10-17T10:33:30.721Z,10.07
2022-10-17T10:36:03.457Z,12.00
2022-10-17T10:38:32.757Z,10.52
2022-10-17T10:41:07.711Z,11.10
2022-10-17T10:43:38.551Z,10.57
2022-10-17T10:46:22.646Z,9.48
2022-10-17T10:49:00.614Z,11.80
2022-10-17T10:51:33.977Z,9.60
2022-10-17T10:54:11.734Z,10.27
2022-10-17T10:56:43.782Z,11.05
2022-10-17T10:59:20.708Z,10.68
2022-10-17T11:01:50.504Z,12.77
2022-10-17T11:04:23.461Z,9.93
2022-10-17T11:06:55.360Z,10.85
2022-10-17T11:09:40.517Z,11.10
2022-10-17T11:12:30.399Z,11.60
2022-10-17T11:15:06.178Z,8.82
2022-10-17T11:17:39.584Z,8.98
2022-10-17T11:20:09.106Z,10.02
2022-10-17T11:22:44.374Z,8.88
2022-10-17T11:25:34.522Z,8.70
2022-10-17T11:33:15.986Z,10.07
2022-10-17T11:35:46.135Z,11.30
2022-10-17T11:38:30.862Z,10.88
2022-10-17T11:40:59.866Z,8.52
2022-10-17T11:43:40.375Z,11.73
2022-10-17T11:46:28.485Z,9.27
2022-10-17T11:49:04.102Z,8.95
2022-10-17T11:54:50.356Z,9.68
2022-10-17T11:57:29.682Z,13.40
2022-10-17T12:00:17.718Z,9.73
2022-10-17T12:03:21.411Z,8.38
2022-10-17T12:05:57.201Z,8.88
2022-10-17T12:08:45.354Z,7.82
2022-10-17T12:11:22.708Z,11.73
2022-10-17T12:13:51.993Z,9.57
2022-10-17T12:16:21.482Z,8.50
2022-10-17T12:19:06.289Z,8.25
2022-10-17T12:22:03.932Z,8.15
2022-10-17T12:24:36.706Z,7.28
2022-10-17T12:27:32.367Z,7.20
2022-10-17T12:30:05.972Z,7.70
2022-10-17T12:32:46.861Z,7.90
2022-10-17T12:35:22.393Z,11.02
2022-10-17T12:37:48.902Z,9.57
2022-10-17T12:40:37.226Z,8.52
2022-10-17T12:43:16.123Z,10.63
2022-10-17T12:45:48.676Z,11.25
2022-10-17T12:48:33.872Z,8.88
2022-10-17T12:54:12.731Z,10.32
2022-10-17T12:56:44.252Z,10.15
2022-10-17T12:59:24.870Z,11.00
2022-10-17T13:01:56.246Z,11.15
2022-10-17T13:04:23.811Z,10.80
2022-10-17T13:06:56.693Z,9.80
2022-10-17T13:09:28.690Z,12.18
2022-10-17T13:11:58.095Z,13.73
2022-10-17T13:14:25.827Z,10.17
2022-10-17T13:17:01.654Z,10.43
2022-10-17T13:19:40.611Z,12.27
2022-10-17T13:22:15.496Z,11.23
2022-10-17T13:24:42.127Z,12.95
2022-10-17T13:27:27.806Z,12.68
2022-10-17T13:29:56.645Z,14.45
2022-10-17T13:32:24.763Z,14.00
2022-10-17T13:35:11.561Z,11.88
2022-10-17T13:37:41.544Z,13.52
2022-10-17T13:40:40.937Z,14.70
2022-10-17T13:43:05.908Z,14.65
2022-10-17T13:45:37.083Z,12.68
2022-10-17T13:48:06.360Z,14.65
2022-10-17T13:50:44.418Z,13.65
2022-10-17T13:53:28.654Z,14.82
2022-10-17T13:56:28.523Z,13.40
2022-10-17T13:59:08.205Z,13.60
2022-10-17T14:01:35.245Z,15.13
2022-10-17T14:04:08.839Z,16.63
2022-10-17T14:06:47.590Z,16.30
2022-10-17T14:09:28.590Z,13.75
2022-10-17T14:12:13.561Z,13.55
2022-10-17T14:15:13.002Z,15.52
2022-10-17T14:17:34.034Z,16.60
2022-10-17T14:20:40.371Z,14.63
2022-10-17T14:23:17.546Z,15.82
2022-10-17T14:25:39.862Z,17.35
2022-10-17T14:28:13.780Z,17.23
2022-10-17T14:30:56.221Z,18.33
2022-10-17T14:33:32.583Z,13.27
2022-10-17T14:36:01.907Z,15.13
2022-10-17T14:38:30.103Z,15.25
2022-10-17T14:44:19.299Z,15.90
2022-10-17T14:46:50.882Z,16.73
2022-10-17T14:49:25.759Z,14.60
2022-10-17T14:52:14.914Z,16.67
2022-10-17T14:54:47.998Z,15.50
2022-10-17T14:57:32.841Z,19.40
2022-10-17T14:59:59.460Z,18.25
2022-10-17T15:02:28.381Z,20.63
2022-10-17T15:04:55.766Z,17.88
2022-10-17T15:07:23.773Z,21.48
2022-10-17T15:09:52.722Z,17.73
2022-10-17T15:12:23.512Z,16.63
2022-10-17T15:14:51.589Z,19.45
2022-10-17T15:17:24.234Z,17.90
2022-10-17T15:19:50.962Z,18.27
2022-10-17T15:22:18.330Z,18.13
2022-10-17T15:24:46.266Z,17.10
2022-10-17T15:27:18.377Z,18.10
2022-10-17T15:29:45.527Z,18.88
2022-10-17T15:32:12.355Z,20.08
2022-10-17T15:34:38.924Z,19.05
2022-10-17T15:37:07.051Z,16.98
2022-10-17T15:39:33.796Z,16.67
2022-10-17T15:42:00.427Z,19.77
2022-10-17T15:44:27.006Z,17.63
2022-10-17T15:46:55.564Z,21.02
2022-10-17T15:49:22.088Z,16.58
2022-10-17T15:51:53.065Z,17.00
2022-10-17T15:54:21.968Z,18.88
2022-10-17T15:56:54.017Z,19.52
2022-10-17T15:59:24.724Z,18.00
2022-10-17T16:01:51.276Z,21.70
2022-10-17T16:04:18.713Z,20.00
2022-10-17T16:06:45.427Z,21.45
2022-10-17T16:09:11.947Z,20.00
2022-10-17T16:11:41.576Z,21.95
2022-10-17T16:14:12.306Z,17.77
2022-10-17T16:16:39.420Z,19.73
2022-10-17T16:19:06.786Z,20.00
2022-10-17T16:21:35.579Z,18.88
2022-10-17T16:24:03.709Z,19.23
2022-10-17T16:26:30.460Z,17.95
2022-10-17T16:28:58.323Z,21.45
2022-10-17T16:31:29.283Z,20.17
2022-10-17T16:33:57.988Z,20.77
2022-10-17T16:36:25.037Z,19.92
2022-10-17T16:38:54.055Z,19.80
2022-10-17T16:41:31.899Z,21.38
2022-10-17T16:44:00.362Z,20.83
2022-10-17T16:46:29.070Z,23.33
2022-10-17T16:48:55.819Z,18.88
2022-10-17T16:51:22.876Z,23.65
2022-10-17T16:53:52.768Z,21.13
2022-10-17T16:56:21.497Z,24.42
2022-10-17T16:58:48.957Z,23.88
2022-10-17T17:01:20.641Z,24.98
2022-10-17T17:03:47.785Z,22.90
2022-10-17T17:06:18.999Z,22.95
2022-10-17T17:08:45.904Z,23.83
2022-10-17T17:11:14.690Z,20.50
2022-10-17T17:13:41.648Z,25.65
2022-10-17T17:16:11.297Z,23.00
2022-10-17T17:18:38.337Z,21.98
2022-10-17T17:21:06.992Z,23.35
2022-10-17T17:23:35.640Z,21.80
2022-10-17T17:26:13.454Z,20.85
2022-10-17T17:28:40.265Z,23.52
2022-10-17T17:31:13.095Z,23.20
2022-10-17T17:33:40.808Z,21.63
2022-10-17T17:36:08.554Z,21.67
2022-10-17T17:38:36.225Z,21.00
2022-10-17T17:41:03.542Z,24.17
2022-10-17T17:43:30.615Z,24.55
2022-10-17T17:45:57.114Z,21.80
2022-10-17T17:48:23.668Z,22.92
2022-10-17T17:50:50.272Z,23.15
2022-10-17T17:53:17.439Z,22.88
2022-10-17T17:55:44.736Z,23.05
2022-10-17T17:58:12.471Z,21.50
2022-10-17T18:00:40.688Z,23.98
2022-10-17T18:03:07.903Z,20.45
2022-10-17T18:05:34.514Z,20.15
2022-10-17T18:08:01.101Z,22.45
2022-10-17T18:10:29.114Z,18.77
2022-10-17T18:12:55.661Z,20.75
2022-10-17T18:15:22.198Z,21.65
2022-10-17T18:17:49.347Z,21.25
2022-10-17T18:20:15.953Z,22.42
2022-10-17T18:22:42.619Z,23.20
2022-10-17T18:25:09.649Z,21.02
2022-10-17T18:27:36.343Z,21.60
2022-10-17T18:30:03.815Z,21.60
2022-10-17T18:32:31.894Z,21.33
2022-10-17T18:34:58.763Z,20.90
2022-10-17T18:37:25.469Z,18.60
2022-10-17T18:39:54.063Z,19.13
2022-10-17T18:42:21.015Z,22.23
2022-10-17T18:44:47.994Z,21.60
2022-10-17T18:47:14.544Z,22.80
2022-10-17T18:49:41.101Z,21.80
2022-10-17T18:52:07.653Z,20.58
2022-10-17T18:54:34.731Z,23.05
2022-10-17T18:57:01.331Z,22.48
2022-10-17T18:59:28.021Z,20.00
2022-10-17T19:01:54.635Z,19.40
2022-10-17T19:04:21.429Z,20.60
2022-10-17T19:06:48.072Z,22.95
2022-10-17T19:09:15.123Z,19.20
2022-10-17T19:11:42.853Z,17.42
2022-10-17T19:14:14.829Z,20.60
2022-10-17T19:16:46.840Z,20.48
2022-10-17T19:19:22.482Z,19.80
2022-10-17T19:21:49.800Z,21.83
2022-10-17T19:24:25.216Z,22.35
2022-10-17T19:26:53.897Z,23.02
2022-10-17T19:29:23.808Z,21.48
2022-10-17T19:31:50.662Z,20.95
2022-10-17T19:34:18.010Z,19.17
2022-10-17T19:36:45.580Z,21.10
2022-10-17T19:39:15.672Z,20.20
2022-10-17T19:41:43.998Z,20.92
2022-10-17T19:44:11.097Z,21.30
2022-10-17T19:46:38.313Z,23.70
2022-10-17T19:49:05.808Z,23.55
2022-10-17T19:51:32.866Z,22.25
2022-10-17T19:54:00.840Z,23.27
2022-10-17T19:56:30.256Z,24.20
2022-10-17T19:58:57.840Z,21.55
2022-10-17T20:01:29.588Z,19.58
2022-10-17T20:03:56.906Z,20.98
2022-10-17T20:06:24.234Z,23.73
2022-10-17T20:08:51.123Z,24.98
2022-10-17T20:11:21.107Z,24.58
2022-10-17T20:13:48.253Z,22.85
2022-10-17T20:16:18.392Z,20.65
2022-10-17T20:18:45.087Z,18.40
2022-10-17T20:21:15.651Z,21.50
2022-10-17T20:23:43.404Z,18.88
2022-10-17T20:26:25.794Z,19.80
2022-10-17T20:29:02.506Z,19.30
2022-10-17T20:31:29.845Z,20.35
2022-10-17T20:33:58.033Z,20.17
2022-10-17T20:36:25.374Z,18.90
2022-10-17T20:38:56.448Z,19.77
2022-10-17T20:41:23.781Z,22.17
2022-10-17T20:43:51.996Z,20.63
2022-10-17T20:46:34.916Z,19.77
2022-10-17T20:49:03.806Z,18.52
2022-10-17T20:51:30.706Z,20.38
2022-10-17T20:56:26.922Z,18.55
2022-10-17T20:58:55.481Z,20.43
2022-10-17T21:01:23.341Z,21.52
2022-10-17T21:03:50.797Z,24.23
2022-10-17T21:06:18.620Z,24.52
2022-10-17T21:08:46.566Z,27.85
2022-10-17T21:11:19.207Z,23.25
2022-10-17T21:13:46.949Z,22.85
2022-10-17T21:16:15.973Z,25.70
2022-10-17T21:18:42.766Z,24.00
2022-10-17T21:21:10.840Z,24.33
2022-10-17T21:23:38.096Z,25.65
2022-10-17T21:26:07.023Z,23.30
2022-10-17T21:28:34.471Z,25.65
2022-10-17T21:31:16.311Z,24.30
2022-10-17T21:33:45.055Z,21.15
2022-10-17T21:36:13.549Z,21.75
2022-10-17T21:38:40.956Z,25.35
2022-10-17T21:41:09.214Z,25.02
2022-10-17T21:43:36.943Z,20.73
2022-10-17T21:46:09.643Z,25.38
2022-10-17T21:48:36.325Z,22.63
2022-10-17T21:51:05.490Z,22.83
2022-10-17T21:53:32.579Z,24.23
2022-10-17T21:56:01.007Z,24.10
2022-10-17T21:58:28.267Z,26.30
2022-10-17T22:01:03.910Z,28.40
2022-10-17T22:03:33.099Z,26.90
2022-10-17T22:06:12.963Z,26.92
2022-10-17T22:08:46.380Z,26.30
2022-10-17T22:11:22.556Z,23.35
2022-10-17T22:13:54.060Z,26.38
2022-10-17T22:16:20.805Z,26.40
2022-10-17T22:18:47.436Z,24.85
2022-10-17T22:21:17.909Z,27.20
2022-10-17T22:23:45.897Z,28.38
2022-10-17T22:26:12.492Z,26.83
2022-10-17T22:28:41.029Z,27.75
2022-10-17T22:31:08.699Z,28.13
2022-10-17T22:33:36.989Z,27.55
2022-10-17T22:36:03.886Z,29.75
2022-10-17T22:38:30.631Z,28.15
2022-10-17T22:40:57.280Z,29.58
2022-10-17T22:43:23.882Z,28.25
2022-10-17T22:45:57.875Z,26.98
2022-10-17T22:48:25.479Z,31.80
2022-10-17T22:50:53.595Z,30.67
2022-10-17T22:53:25.990Z,28.20
2022-10-17T22:55:54.177Z,30.40
2022-10-17T22:58:21.753Z,27.98
2022-10-17T23:00:50.096Z,27.95
2022-10-17T23:03:17.570Z,27.20
2022-10-17T23:05:44.781Z,27.00
2022-10-17T23:08:12.345Z,30.92
2022-10-17T23:10:39.405Z,28.05
2022-10-17T23:13:06.175Z,27.80
2022-10-17T23:15:33.611Z,28.90
2022-10-17T23:18:01.461Z,27.58
2022-10-17T23:20:29.442Z,25.67
2022-10-17T23:22:57.006Z,29.55
2022-10-17T23:25:23.795Z,26.55
2022-10-17T23:27:50.364Z,26.23
2022-10-17T23:30:17.313Z,29.73
2022-10-17T23:32:44.186Z,33.10
2022-10-17T23:35:10.966Z,31.73
2022-10-17T23:37:38.142Z,33.42
2022-10-17T23:40:06.055Z,28.90
2022-10-17T23:42:32.686Z,30.05
2022-10-17T23:44:59.319Z,33.42
2022-10-17T23:47:25.910Z,30.23
2022-10-17T23:49:52.452Z,30.50
2022-10-17T23:52:19.048Z,31.13
2022-10-17T23:54:45.603Z,30.67
2022-10-17T23:57:12.153Z,33.90
2022-10-17T23:59:38.695Z,33.60
